createdAt,value
2018-12-27T00:01:55.912Z,11.47
2018-12-27T00:04:24.196Z,10.47
2018-12-27T00:06:52.469Z,13.97
2018-12-27T00:09:20.765Z,14.50
2018-12-27T00:11:49.008Z,14.67
2018-12-27T00:14:17.136Z,15.33
2018-12-27T00:16:45.516Z,13.53
2018-12-27T00:19:13.739Z,18.50
2018-12-27T00:21:42.001Z,11.70
2018-12-27T00:24:10.121Z,12.93
2018-12-27T00:26:38.361Z,13.80
2018-12-27T00:29:06.480Z,13.63
2018-12-27T00:31:34.839Z,16.02
2018-12-27T00:34:02.954Z,15.37
2018-12-27T00:36:31.186Z,15.47
2018-12-27T00:38:59.364Z,15.00
2018-12-27T00:41:27.645Z,17.23
2018-12-27T00:43:55.760Z,14.87
2018-12-27T00:46:24.042Z,14.13
2018-12-27T00:48:52.160Z,11.57
2018-12-27T00:51:20.395Z,11.60
2018-12-27T00:53:48.601Z,10.93
2018-12-27T00:56:16.905Z,12.60
2018-12-27T00:58:45.166Z,13.77
2018-12-27T01:01:13.281Z,10.20
2018-12-27T01:03:41.749Z,15.27
2018-12-27T01:06:09.991Z,9.93
2018-12-27T01:08:38.156Z,12.63
2018-12-27T01:11:07.420Z,12.93
2018-12-27T01:13:35.624Z,15.10
2018-12-27T01:16:04.261Z,11.53
2018-12-27T01:18:32.424Z,8.60
2018-12-27T01:21:00.538Z,9.40
2018-12-27T01:23:28.776Z,13.40
2018-12-27T01:25:56.905Z,11.83
2018-12-27T01:28:26.374Z,10.57
2018-12-27T01:30:54.584Z,8.60
2018-12-27T01:33:22.818Z,14.07
2018-12-27T01:35:51.032Z,11.83
2018-12-27T01:38:19.772Z,11.83
2018-12-27T01:40:48.013Z,8.97
2018-12-27T01:43:16.224Z,8.77
2018-12-27T01:45:44.521Z,9.37
2018-12-27T01:48:12.846Z,9.77
2018-12-27T01:50:41.001Z,9.70
2018-12-27T01:53:09.234Z,10.43
2018-12-27T01:55:37.434Z,9.07
2018-12-27T01:58:05.760Z,10.80
2018-12-27T02:00:34.850Z,8.30
2018-12-27T02:03:03.151Z,8.17
2018-12-27T02:05:31.353Z,13.43
2018-12-27T02:07:59.747Z,10.27
2018-12-27T02:10:27.865Z,10.63
2018-12-27T02:12:56.145Z,9.83
2018-12-27T02:15:24.321Z,11.13
2018-12-27T02:17:52.492Z,12.57
2018-12-27T02:20:21.566Z,9.07
2018-12-27T02:22:49.917Z,6.93
2018-12-27T02:25:18.159Z,7.17
2018-12-27T02:27:46.274Z,7.53
2018-12-27T02:30:14.574Z,8.40
2018-12-27T02:32:42.693Z,9.53
2018-12-27T02:35:10.924Z,9.27
2018-12-27T02:37:39.111Z,7.00
2018-12-27T02:40:07.404Z,12.00
2018-12-27T02:42:35.512Z,7.43
2018-12-27T02:45:03.749Z,8.63
2018-12-27T02:47:31.970Z,11.93
2018-12-27T02:50:00.287Z,8.63
2018-12-27T02:52:28.528Z,8.00
2018-12-27T02:54:56.698Z,7.23
2018-12-27T02:57:25.028Z,7.27
2018-12-27T02:59:53.321Z,7.23
2018-12-27T03:02:21.617Z,6.70
2018-12-27T03:04:49.905Z,6.23
2018-12-27T03:07:18.027Z,8.00
2018-12-27T03:09:46.261Z,8.90
2018-12-27T03:12:14.450Z,11.17
2018-12-27T03:14:42.656Z,10.10
2018-12-27T03:17:11.519Z,5.37
2018-12-27T03:19:39.641Z,5.97
2018-12-27T03:22:07.873Z,7.37
2018-12-27T03:24:36.044Z,7.47
2018-12-27T03:27:04.228Z,9.33
2018-12-27T03:29:32.438Z,6.80
2018-12-27T03:32:00.634Z,5.40
2018-12-27T03:34:28.801Z,9.73
2018-12-27T03:36:57.102Z,6.87
2018-12-27T03:39:25.262Z,8.03
2018-12-27T03:41:53.561Z,7.80
2018-12-27T03:44:22.149Z,5.33
2018-12-27T03:46:50.389Z,5.13
2018-12-27T03:49:19.237Z,5.83
2018-12-27T03:51:47.445Z,5.20
2018-12-27T03:54:15.632Z,6.70
2018-12-27T03:56:43.871Z,6.63
2018-12-27T03:59:12.001Z,7.07
2018-12-27T04:01:40.239Z,6.00
2018-12-27T04:04:08.350Z,7.73
2018-12-27T04:06:36.629Z,6.10
2018-12-27T04:09:05.288Z,5.53
2018-12-27T04:11:33.458Z,5.10
2018-12-27T04:14:01.679Z,5.47
2018-12-27T04:16:29.857Z,4.70
2018-12-27T04:18:58.069Z,11.63
2018-12-27T04:21:26.280Z,5.57
2018-12-27T04:23:55.066Z,6.47
2018-12-27T04:26:23.352Z,10.77
2018-12-27T04:28:51.457Z,6.60
2018-12-27T04:31:19.826Z,10.13
2018-12-27T04:33:48.245Z,6.17
2018-12-27T04:36:16.582Z,8.27
2018-12-27T04:38:44.765Z,9.80
2018-12-27T04:41:13.099Z,9.97
2018-12-27T04:43:41.663Z,6.83
2018-12-27T04:46:09.769Z,7.10
2018-12-27T04:48:38.081Z,8.03
2018-12-27T04:51:06.322Z,9.63
2018-12-27T04:53:34.657Z,14.30
2018-12-27T04:56:02.942Z,25.83
2018-12-27T04:58:31.049Z,21.40
2018-12-27T05:00:59.290Z,20.20
2018-12-27T05:03:27.502Z,18.53
2018-12-27T05:05:55.814Z,18.77
2018-12-27T05:08:24.109Z,14.90
2018-12-27T05:10:52.365Z,15.03
2018-12-27T05:13:20.469Z,17.93
2018-12-27T05:15:48.761Z,17.30
2018-12-27T05:18:16.874Z,12.67
2018-12-27T05:20:45.117Z,14.43
2018-12-27T05:23:13.760Z,11.03
2018-12-27T05:25:42.089Z,10.07
2018-12-27T05:28:10.461Z,12.47
2018-12-27T05:30:38.747Z,10.20
2018-12-27T05:33:07.008Z,9.53
2018-12-27T05:35:35.129Z,10.53
2018-12-27T05:38:03.357Z,7.63
2018-12-27T05:40:31.580Z,11.40
2018-12-27T05:42:59.873Z,9.03
2018-12-27T05:45:28.193Z,9.17
2018-12-27T05:47:56.484Z,9.80
2018-12-27T05:50:24.820Z,13.47
2018-12-27T05:52:53.085Z,12.33
2018-12-27T05:55:21.765Z,8.97
2018-12-27T05:57:49.950Z,9.40
2018-12-27T06:00:18.292Z,8.57
2018-12-27T06:02:46.405Z,10.53
2018-12-27T06:05:14.521Z,13.60
2018-12-27T06:07:42.724Z,12.43
2018-12-27T06:10:10.844Z,14.33
2018-12-27T06:12:38.964Z,14.10
2018-12-27T06:15:07.234Z,11.93
2018-12-27T06:17:35.404Z,14.33
2018-12-27T06:20:03.684Z,15.00
2018-12-27T06:22:31.916Z,12.90
2018-12-27T06:25:00.036Z,15.40
2018-12-27T06:27:28.309Z,14.10
2018-12-27T06:29:56.485Z,15.93
2018-12-27T06:32:24.784Z,16.23
2018-12-27T06:34:53.049Z,15.00
2018-12-27T06:37:21.228Z,12.57
2018-12-27T06:39:49.500Z,16.93
2018-12-27T06:42:17.682Z,13.83
2018-12-27T06:44:46.010Z,11.90
2018-12-27T06:47:14.309Z,20.63
2018-12-27T06:49:42.647Z,12.30
2018-12-27T06:52:10.955Z,14.00
2018-12-27T06:54:39.202Z,12.80
2018-12-27T06:57:07.314Z,14.07
2018-12-27T06:59:35.540Z,14.70
2018-12-27T07:02:04.161Z,10.30
2018-12-27T07:04:33.861Z,10.83
2018-12-27T07:07:07.722Z,12.73
2018-12-27T07:09:41.507Z,10.60
2018-12-27T07:12:09.725Z,24.70
2018-12-27T07:14:37.956Z,22.67
2018-12-27T07:17:09.808Z,23.27
2018-12-27T07:19:38.193Z,22.90
2018-12-27T07:22:06.488Z,14.70
2018-12-27T07:24:34.771Z,45.13
2018-12-27T07:27:03.385Z,42.97
2018-12-27T07:29:31.692Z,35.23
2018-12-27T07:31:59.981Z,24.97
2018-12-27T07:34:28.430Z,20.87
2018-12-27T07:36:56.563Z,15.73
2018-12-27T07:39:24.749Z,14.20
2018-12-27T07:41:52.957Z,13.88
2018-12-27T07:44:21.087Z,17.33
2018-12-27T07:46:49.214Z,14.07
2018-12-27T07:49:17.438Z,13.07
2018-12-27T07:51:45.568Z,13.40
2018-12-27T07:54:13.831Z,15.40
2018-12-27T07:56:41.999Z,16.17
2018-12-27T07:59:10.179Z,11.97
2018-12-27T08:01:38.901Z,11.50
2018-12-27T08:04:07.020Z,15.78
2018-12-27T08:06:35.267Z,11.30
2018-12-27T08:09:05.197Z,13.17
2018-12-27T08:11:33.419Z,11.53
2018-12-27T08:14:01.637Z,12.37
2018-12-27T08:16:29.811Z,13.20
2018-12-27T08:18:57.980Z,52.93
2018-12-27T08:21:26.288Z,22.13
2018-12-27T08:23:54.402Z,13.07
2018-12-27T08:26:22.725Z,12.60
2018-12-27T08:28:51.021Z,10.27
2018-12-27T08:31:19.281Z,13.33
2018-12-27T08:33:47.391Z,13.20
2018-12-27T08:36:15.661Z,12.13
2018-12-27T08:38:43.778Z,15.30
2018-12-27T08:41:12.069Z,10.53
2018-12-27T08:43:40.198Z,11.50
2018-12-27T08:46:08.812Z,12.07
2018-12-27T08:48:36.985Z,12.30
2018-12-27T08:51:05.329Z,13.27
2018-12-27T08:53:33.718Z,12.10
2018-12-27T08:56:02.225Z,14.93
2018-12-27T08:58:30.488Z,14.63
2018-12-27T09:00:58.603Z,15.57
2018-12-27T09:03:26.872Z,20.83
2018-12-27T09:05:55.038Z,14.53
2018-12-27T09:08:23.297Z,14.03
2018-12-27T09:10:51.520Z,14.37
2018-12-27T09:13:19.820Z,15.50
2018-12-27T09:15:48.137Z,19.63
2018-12-27T09:18:16.244Z,14.83
2018-12-27T09:20:45.637Z,18.33
2018-12-27T09:23:13.832Z,14.40
2018-12-27T09:25:43.097Z,16.83
2018-12-27T09:28:11.347Z,15.57
2018-12-27T09:30:39.525Z,14.77
2018-12-27T09:33:07.744Z,16.13
2018-12-27T09:35:36.160Z,8.83
2018-12-27T09:38:04.322Z,6.33
2018-12-27T09:40:32.604Z,8.17
2018-12-27T09:43:00.727Z,8.73
2018-12-27T09:45:29.075Z,10.07
2018-12-27T09:47:57.212Z,8.10
2018-12-27T09:50:25.525Z,9.17
2018-12-27T09:52:53.728Z,10.50
2018-12-27T09:55:22.059Z,10.23
2018-12-27T09:57:50.212Z,10.30
2018-12-27T10:00:18.830Z,9.77
2018-12-27T10:02:47.082Z,10.87
2018-12-27T10:05:15.353Z,8.57
2018-12-27T10:07:43.526Z,8.60
2018-12-27T10:10:11.715Z,7.87
2018-12-27T10:12:39.884Z,10.80
2018-12-27T10:15:08.616Z,8.90
2018-12-27T10:17:37.070Z,8.97
2018-12-27T10:20:05.753Z,12.23
2018-12-27T10:22:35.484Z,9.67
2018-12-27T10:25:04.339Z,8.57
2018-12-27T10:27:32.546Z,8.90
2018-12-27T10:30:00.762Z,7.93
2018-12-27T10:32:29.060Z,8.80
2018-12-27T10:34:57.180Z,5.27
2018-12-27T10:37:25.421Z,7.90
2018-12-27T10:39:53.649Z,7.37
2018-12-27T10:42:22.023Z,6.40
2018-12-27T10:44:50.233Z,8.63
2018-12-27T10:47:18.550Z,6.60
2018-12-27T10:49:46.776Z,8.18
2018-12-27T10:52:15.097Z,7.70
2018-12-27T10:54:44.225Z,7.47
2018-12-27T10:57:12.590Z,7.53
2018-12-27T10:59:40.818Z,7.27
2018-12-27T11:02:08.965Z,9.17
2018-12-27T11:04:37.228Z,10.43
2018-12-27T11:07:05.351Z,9.23
2018-12-27T11:09:33.630Z,8.03
2018-12-27T11:12:02.169Z,9.13
2018-12-27T11:14:30.401Z,10.80
2018-12-27T11:16:58.625Z,8.53
2018-12-27T11:19:26.973Z,9.07
2018-12-27T11:21:55.237Z,8.83
2018-12-27T11:24:23.453Z,7.37
2018-12-27T11:26:51.773Z,6.97
2018-12-27T11:29:20.109Z,7.00
2018-12-27T11:31:56.898Z,8.87
2018-12-27T11:34:25.745Z,7.43
2018-12-27T11:36:54.101Z,8.27
2018-12-27T11:39:22.606Z,7.33
2018-12-27T11:41:51.000Z,10.23
2018-12-27T11:44:19.906Z,8.40
2018-12-27T11:46:49.449Z,24.83
2018-12-27T11:49:19.249Z,193.13
2018-12-27T11:51:47.620Z,84.67
2018-12-27T11:54:15.908Z,22.77
2018-12-27T11:56:44.193Z,17.17
2018-12-27T11:59:12.310Z,10.33
2018-12-27T12:01:40.577Z,11.13
2018-12-27T12:04:09.542Z,11.73
2018-12-27T12:06:37.973Z,11.03
2018-12-27T12:09:06.720Z,14.65
2018-12-27T12:11:34.936Z,9.17
2018-12-27T12:14:03.140Z,9.70
2018-12-27T12:16:31.521Z,23.17
2018-12-27T12:18:59.898Z,13.83
2018-12-27T12:21:29.272Z,11.63
2018-12-27T12:23:57.897Z,21.27
2018-12-27T12:26:26.430Z,22.73
2018-12-27T12:28:54.833Z,20.80
2018-12-27T12:31:25.206Z,13.60
2018-12-27T12:33:53.805Z,14.03
2018-12-27T12:36:22.332Z,11.73
2018-12-27T12:38:50.893Z,9.70
2018-12-27T12:41:19.209Z,10.27
2018-12-27T12:43:47.641Z,11.47
2018-12-27T12:46:16.034Z,18.80
2018-12-27T12:48:49.049Z,16.87
2018-12-27T12:51:17.551Z,12.93
2018-12-27T12:53:46.069Z,22.07
2018-12-27T12:56:14.578Z,11.53
2018-12-27T12:58:42.906Z,9.60
2018-12-27T13:01:11.341Z,13.77
2018-12-27T13:03:40.468Z,8.83
2018-12-27T13:06:08.990Z,11.30
2018-12-27T13:08:37.329Z,13.00
2018-12-27T13:11:05.802Z,23.87
2018-12-27T13:13:34.113Z,13.23
2018-12-27T13:16:02.705Z,12.60
2018-12-27T13:18:31.029Z,22.87
2018-12-27T13:20:59.729Z,12.00
2018-12-27T13:23:28.514Z,18.17
2018-12-27T13:25:57.241Z,10.77
2018-12-27T13:28:25.680Z,10.90
2018-12-27T13:30:54.062Z,22.53
2018-12-27T13:33:22.481Z,12.10
2018-12-27T13:35:50.877Z,12.43
2018-12-27T13:38:19.376Z,11.87
2018-12-27T13:40:47.747Z,17.10
2018-12-27T13:43:16.181Z,14.60
2018-12-27T13:45:44.503Z,10.20
2018-12-27T13:48:12.965Z,13.70
2018-12-27T13:50:41.273Z,17.77
2018-12-27T13:53:11.060Z,14.27
2018-12-27T13:55:43.163Z,16.73
2018-12-27T13:58:11.626Z,14.57
2018-12-27T14:00:40.029Z,12.87
2018-12-27T14:03:08.407Z,14.53
2018-12-27T14:05:36.901Z,17.90
2018-12-27T14:08:05.598Z,11.37
2018-12-27T14:10:34.437Z,11.03
2018-12-27T14:13:03.915Z,13.47
2018-12-27T14:15:32.362Z,18.30
2018-12-27T14:18:00.705Z,15.00
2018-12-27T14:20:29.687Z,16.13
2018-12-27T14:22:58.042Z,13.43
2018-12-27T14:25:28.369Z,14.03
2018-12-27T14:28:01.913Z,17.60
2018-12-27T14:30:33.047Z,20.50
2018-12-27T14:33:02.973Z,21.53
2018-12-27T14:35:31.737Z,25.93
2018-12-27T14:38:00.867Z,19.63
2018-12-27T14:40:29.521Z,20.47
2018-12-27T14:42:59.501Z,16.10
2018-12-27T14:45:28.608Z,17.73
2018-12-27T14:47:57.652Z,20.25
2018-12-27T14:50:26.827Z,24.63
2018-12-27T14:52:55.658Z,24.80
2018-12-27T14:55:24.229Z,22.37
2018-12-27T14:57:55.934Z,19.20
2018-12-27T15:00:24.450Z,34.43
2018-12-27T15:02:54.044Z,23.73
2018-12-27T15:05:22.732Z,22.27
2018-12-27T15:07:53.122Z,48.87
2018-12-27T15:10:21.894Z,23.33
2018-12-27T15:12:50.553Z,24.73
2018-12-27T15:15:19.094Z,29.50
2018-12-27T15:17:48.056Z,20.27
2018-12-27T15:20:19.480Z,36.83
2018-12-27T15:22:48.885Z,56.77
2018-12-27T15:25:17.481Z,42.23
2018-12-27T15:27:46.524Z,28.03
2018-12-27T15:30:15.821Z,26.37
2018-12-27T15:32:44.694Z,20.97
2018-12-27T15:35:13.365Z,21.13
2018-12-27T15:37:43.396Z,28.27
2018-12-27T15:40:12.090Z,22.93
2018-12-27T15:42:43.083Z,23.43
2018-12-27T15:45:12.008Z,23.00
2018-12-27T15:47:40.418Z,35.60
2018-12-27T15:50:11.231Z,56.23
2018-12-27T15:52:40.459Z,63.17
2018-12-27T15:55:09.371Z,61.20
2018-12-27T15:57:37.677Z,56.77
2018-12-27T16:00:06.872Z,46.97
2018-12-27T16:02:35.385Z,41.13
2018-12-27T16:05:04.072Z,49.97
2018-12-27T16:07:32.621Z,43.93
2018-12-27T16:10:01.106Z,49.20
2018-12-27T16:12:29.423Z,51.90
2018-12-27T16:14:57.849Z,55.30
2018-12-27T16:17:26.183Z,62.20
2018-12-27T16:19:55.561Z,57.70
2018-12-27T16:22:24.312Z,49.20
2018-12-27T16:24:52.726Z,47.23
2018-12-27T16:27:21.726Z,50.07
2018-12-27T16:29:50.610Z,44.07
2018-12-27T16:32:19.177Z,49.07
2018-12-27T16:34:47.655Z,48.33
2018-12-27T16:37:16.048Z,46.43
2018-12-27T16:39:44.525Z,46.53
2018-12-27T16:42:13.005Z,42.63
2018-12-27T16:44:41.741Z,45.63
2018-12-27T16:47:10.538Z,52.50
2018-12-27T16:49:38.845Z,44.87
2018-12-27T16:52:07.314Z,43.83
2018-12-27T16:54:35.634Z,47.07
2018-12-27T16:57:04.289Z,52.00
2018-12-27T16:59:32.657Z,44.17
2018-12-27T17:02:01.140Z,54.30
2018-12-27T17:04:29.717Z,53.40
2018-12-27T17:06:58.034Z,49.73
2018-12-27T17:09:26.789Z,47.90
2018-12-27T17:11:55.093Z,54.30
2018-12-27T17:14:23.529Z,48.97
2018-12-27T17:16:51.958Z,43.73
2018-12-27T17:19:20.888Z,43.83
2018-12-27T17:21:49.389Z,51.40
2018-12-27T17:24:17.821Z,38.20
2018-12-27T17:26:46.142Z,39.97
2018-12-27T17:29:14.777Z,42.63
2018-12-27T17:31:43.109Z,50.13
2018-12-27T17:34:12.538Z,41.13
2018-12-27T17:36:40.938Z,41.47
2018-12-27T17:39:09.506Z,45.70
2018-12-27T17:41:39.553Z,46.60
2018-12-27T17:44:07.884Z,42.83
2018-12-27T17:46:36.339Z,42.07
2018-12-27T17:49:04.770Z,43.63
2018-12-27T17:51:33.321Z,42.23
2018-12-27T17:54:01.793Z,50.17
2018-12-27T17:56:30.114Z,45.07
2018-12-27T17:58:58.564Z,60.10
2018-12-27T18:01:26.972Z,50.60
2018-12-27T18:03:55.337Z,67.43
2018-12-27T18:06:23.706Z,62.93
2018-12-27T18:08:52.159Z,70.23
2018-12-27T18:11:20.486Z,78.43
2018-12-27T18:13:49.002Z,62.90
2018-12-27T18:16:17.302Z,68.53
2018-12-27T18:18:45.787Z,75.77
2018-12-27T18:21:14.103Z,74.47
2018-12-27T18:23:42.592Z,101.07
2018-12-27T18:26:11.036Z,81.40
2018-12-27T18:28:39.906Z,73.53
2018-12-27T18:31:08.319Z,64.10
2018-12-27T18:33:36.768Z,171.47
2018-12-27T18:36:05.146Z,236.90
2018-12-27T18:38:33.518Z,227.60
2018-12-27T18:41:01.907Z,183.77
2018-12-27T18:43:30.306Z,143.30
2018-12-27T18:45:58.702Z,137.40
2018-12-27T18:48:27.130Z,109.30
2018-12-27T18:50:55.613Z,109.40
2018-12-27T18:53:24.058Z,102.77
2018-12-27T18:55:52.417Z,105.67
2018-12-27T18:58:20.866Z,93.13
2018-12-27T19:00:49.262Z,79.40
2018-12-27T19:03:17.708Z,89.43
2018-12-27T19:05:46.117Z,92.03
2018-12-27T19:08:14.492Z,90.73
2018-12-27T19:10:42.877Z,91.17
2018-12-27T19:13:12.445Z,87.67
2018-12-27T19:16:01.483Z,83.27
2018-12-27T19:18:35.676Z,70.43
2018-12-27T19:21:39.993Z,66.10
2018-12-27T19:24:08.761Z,55.47
2018-12-27T19:26:37.073Z,55.27
2018-12-27T19:29:05.570Z,41.47
2018-12-27T19:31:33.983Z,46.63
2018-12-27T19:34:02.551Z,51.50
2018-12-27T19:36:31.054Z,50.00
2018-12-27T19:38:59.401Z,48.43
2018-12-27T19:41:27.920Z,66.87
2018-12-27T19:43:56.382Z,54.93
2018-12-27T19:46:24.897Z,52.57
2018-12-27T19:48:53.396Z,51.80
2018-12-27T19:51:21.889Z,45.30
2018-12-27T19:53:50.209Z,43.27
2018-12-27T19:56:18.641Z,63.43
2018-12-27T19:58:47.103Z,63.37
2018-12-27T20:01:15.623Z,68.53
2018-12-27T20:03:44.310Z,74.40
2018-12-27T20:06:12.872Z,74.03
2018-12-27T20:08:41.384Z,74.63
2018-12-27T20:11:09.878Z,77.03
2018-12-27T20:13:38.262Z,74.10
2018-12-27T20:16:06.761Z,64.87
2018-12-27T20:18:35.111Z,69.15
2018-12-27T20:21:03.545Z,62.83
2018-12-27T20:23:31.987Z,62.93
2018-12-27T20:26:00.362Z,72.10
2018-12-27T20:28:28.825Z,70.43
2018-12-27T20:30:57.181Z,69.40
2018-12-27T20:33:25.577Z,81.00
2018-12-27T20:35:54.297Z,79.53
2018-12-27T20:38:22.870Z,82.23
2018-12-27T20:40:51.419Z,77.93
2018-12-27T20:43:19.866Z,75.77
2018-12-27T20:45:48.270Z,80.07
2018-12-27T20:48:16.816Z,76.63
2018-12-27T20:50:45.186Z,80.23
2018-12-27T20:53:13.646Z,74.80
2018-12-27T20:55:42.001Z,82.53
2018-12-27T20:58:10.509Z,83.67
2018-12-27T21:00:39.107Z,84.93
2018-12-27T21:03:07.469Z,80.33
2018-12-27T21:05:38.381Z,84.63
2018-12-27T21:08:13.907Z,80.77
2018-12-27T21:10:37.093Z,75.90
2018-12-27T21:13:05.498Z,103.20
2018-12-27T21:15:35.057Z,99.47
2018-12-27T21:18:03.983Z,81.37
2018-12-27T21:20:32.479Z,81.73
2018-12-27T21:23:00.816Z,68.27
2018-12-27T21:25:29.312Z,72.77
2018-12-27T21:27:57.649Z,74.87
2018-12-27T21:30:26.141Z,67.13
2018-12-27T21:32:54.635Z,63.70
2018-12-27T21:35:23.009Z,81.00
2018-12-27T21:37:51.708Z,77.10
2018-12-27T21:40:20.317Z,72.77
2018-12-27T21:42:48.715Z,72.90
2018-12-27T21:45:17.208Z,72.43
2018-12-27T21:47:45.735Z,68.50
2018-12-27T21:50:15.196Z,73.07
2018-12-27T21:52:50.933Z,74.17
2018-12-27T21:55:31.156Z,66.60
2018-12-27T21:58:02.018Z,74.00
2018-12-27T22:00:30.337Z,68.80
2018-12-27T22:02:58.810Z,69.12
2018-12-27T22:05:27.113Z,71.30
2018-12-27T22:07:55.555Z,77.67
2018-12-27T22:10:25.905Z,75.20
2018-12-27T22:13:03.414Z,68.97
2018-12-27T22:15:31.961Z,69.00
2018-12-27T22:18:00.537Z,66.53
2018-12-27T22:20:29.116Z,64.20
2018-12-27T22:22:57.510Z,64.90
2018-12-27T22:25:25.930Z,65.27
2018-12-27T22:27:54.301Z,64.60
2018-12-27T22:30:22.907Z,58.90
2018-12-27T22:32:51.398Z,60.07
2018-12-27T22:35:19.708Z,52.53
2018-12-27T22:38:02.436Z,62.43
2018-12-27T22:40:30.766Z,61.93
2018-12-27T22:42:59.208Z,49.63
2018-12-27T22:45:27.578Z,60.90
2018-12-27T22:47:55.952Z,56.23
2018-12-27T22:50:24.609Z,54.20
2018-12-27T22:52:52.911Z,52.20
2018-12-27T22:55:21.348Z,54.97
2018-12-27T22:57:49.753Z,53.73
2018-12-27T23:00:30.717Z,53.20
2018-12-27T23:02:59.902Z,56.07
2018-12-27T23:05:28.205Z,49.60
2018-12-27T23:07:56.658Z,56.27
2018-12-27T23:10:25.098Z,55.30
2018-12-27T23:12:53.615Z,59.87
2018-12-27T23:15:22.158Z,52.73
2018-12-27T23:17:51.501Z,55.83
2018-12-27T23:20:19.998Z,57.03
2018-12-27T23:22:48.317Z,50.83
2018-12-27T23:25:16.789Z,56.40
2018-12-27T23:27:54.087Z,50.67
2018-12-27T23:30:22.770Z,51.83
2018-12-27T23:32:51.130Z,48.80
2018-12-27T23:35:26.978Z,54.13
2018-12-27T23:38:05.728Z,48.10
2018-12-27T23:40:36.598Z,52.63
2018-12-27T23:43:04.909Z,46.90
2018-12-27T23:45:33.345Z,50.40
2018-12-27T23:48:01.657Z,49.10
2018-12-27T23:50:30.313Z,53.17
2018-12-27T23:52:58.637Z,58.87
2018-12-27T23:55:27.200Z,51.30
2018-12-27T23:57:55.500Z,54.70
